sensor_id;sensor_type;location;lat;lon;timestamp;pressure;altitude;pressure_sealevel;temperature;humidity
48810;BME280;40070;47.322;18.784;2023-02-21T00:01:43;1002.74;;;10.61;57.30
48810;BME280;40070;47.322;18.784;2023-02-21T00:03:45;1002.74;;;10.50;57.08
48810;BME280;40070;47.322;18.784;2023-02-21T00:05:47;1002.78;;;10.56;56.75
48810;BME280;40070;47.322;18.784;2023-02-21T00:07:50;1002.69;;;10.68;55.91
48810;BME280;40070;47.322;18.784;2023-02-21T00:09:52;1002.61;;;10.68;56.10
48810;BME280;40070;47.322;18.784;2023-02-21T00:11:54;1002.60;;;10.63;56.02
48810;BME280;40070;47.322;18.784;2023-02-21T00:13:57;1002.55;;;10.68;55.88
48810;BME280;40070;47.322;18.784;2023-02-21T00:15:59;1002.51;;;10.67;55.56
48810;BME280;40070;47.322;18.784;2023-02-21T00:18:01;1002.54;;;10.51;56.08
48810;BME280;40070;47.322;18.784;2023-02-21T00:20:04;1002.51;;;10.73;55.60
48810;BME280;40070;47.322;18.784;2023-02-21T00:22:06;1002.55;;;10.84;55.34
48810;BME280;40070;47.322;18.784;2023-02-21T00:24:11;1002.53;;;10.96;54.86
48810;BME280;40070;47.322;18.784;2023-02-21T00:26:16;1002.48;;;10.81;55.15
48810;BME280;40070;47.322;18.784;2023-02-21T00:28:19;1002.50;;;10.71;55.34
48810;BME280;40070;47.322;18.784;2023-02-21T00:30:21;1002.48;;;10.91;54.87
48810;BME280;40070;47.322;18.784;2023-02-21T00:32:23;1002.50;;;10.96;54.93
48810;BME280;40070;47.322;18.784;2023-02-21T00:34:26;1002.51;;;10.97;54.84
48810;BME280;40070;47.322;18.784;2023-02-21T00:36:28;1002.44;;;10.93;54.79
48810;BME280;40070;47.322;18.784;2023-02-21T00:38:30;1002.40;;;11.00;54.58
48810;BME280;40070;47.322;18.784;2023-02-21T00:40:33;1002.41;;;10.99;54.46
48810;BME280;40070;47.322;18.784;2023-02-21T00:42:35;1002.37;;;10.94;54.53
48810;BME280;40070;47.322;18.784;2023-02-21T00:44:37;1002.36;;;10.98;53.73
48810;BME280;40070;47.322;18.784;2023-02-21T00:46:40;1002.35;;;10.96;53.44
48810;BME280;40070;47.322;18.784;2023-02-21T00:48:42;1002.38;;;10.89;53.85
48810;BME280;40070;47.322;18.784;2023-02-21T00:50:44;1002.45;;;10.70;53.39
48810;BME280;40070;47.322;18.784;2023-02-21T00:52:47;1002.43;;;11.00;52.69
48810;BME280;40070;47.322;18.784;2023-02-21T00:54:49;1002.44;;;11.11;52.05
48810;BME280;40070;47.322;18.784;2023-02-21T00:56:51;1002.40;;;11.05;52.33
48810;BME280;40070;47.322;18.784;2023-02-21T00:58:54;1002.39;;;10.99;52.58
48810;BME280;40070;47.322;18.784;2023-02-21T01:00:56;1002.37;;;11.07;51.84
48810;BME280;40070;47.322;18.784;2023-02-21T01:02:58;1002.41;;;11.17;51.86
48810;BME280;40070;47.322;18.784;2023-02-21T01:05:01;1002.34;;;11.04;51.62
48810;BME280;40070;47.322;18.784;2023-02-21T01:07:03;1002.34;;;11.24;51.34
48810;BME280;40070;47.322;18.784;2023-02-21T01:09:06;1002.37;;;11.21;51.26
48810;BME280;40070;47.322;18.784;2023-02-21T01:11:12;1002.41;;;11.40;50.46
48810;BME280;40070;47.322;18.784;2023-02-21T01:13:15;1002.37;;;11.31;50.90
48810;BME280;40070;47.322;18.784;2023-02-21T01:15:17;1002.38;;;11.31;50.50
48810;BME280;40070;47.322;18.784;2023-02-21T01:17:20;1002.46;;;11.40;51.08
48810;BME280;40070;47.322;18.784;2023-02-21T01:19:22;1002.42;;;11.28;50.66
48810;BME280;40070;47.322;18.784;2023-02-21T01:21:27;1002.43;;;11.22;51.04
48810;BME280;40070;47.322;18.784;2023-02-21T01:23:30;1002.41;;;11.19;50.48
48810;BME280;40070;47.322;18.784;2023-02-21T01:25:32;1002.44;;;11.39;50.07
48810;BME280;40070;47.322;18.784;2023-02-21T01:27:35;1002.41;;;11.35;50.35
48810;BME280;40070;47.322;18.784;2023-02-21T01:29:37;1002.43;;;11.20;50.51
48810;BME280;40070;47.322;18.784;2023-02-21T01:31:40;1002.44;;;11.24;50.30
48810;BME280;40070;47.322;18.784;2023-02-21T01:33:42;1002.41;;;11.29;50.01
48810;BME280;40070;47.322;18.784;2023-02-21T01:35:44;1002.33;;;11.17;50.22
48810;BME280;40070;47.322;18.784;2023-02-21T01:37:47;1002.33;;;11.31;49.82
48810;BME280;40070;47.322;18.784;2023-02-21T01:39:49;1002.31;;;11.19;50.59
48810;BME280;40070;47.322;18.784;2023-02-21T01:41:51;1002.35;;;11.19;49.67
48810;BME280;40070;47.322;18.784;2023-02-21T01:43:58;1002.35;;;11.26;49.10
48810;BME280;40070;47.322;18.784;2023-02-21T01:46:00;1002.27;;;11.35;49.11
48810;BME280;40070;47.322;18.784;2023-02-21T01:48:03;1002.35;;;11.50;48.85
48810;BME280;40070;47.322;18.784;2023-02-21T01:50:08;1002.30;;;11.60;47.96
48810;BME280;40070;47.322;18.784;2023-02-21T01:52:11;1002.37;;;11.54;48.00
48810;BME280;40070;47.322;18.784;2023-02-21T01:54:14;1002.42;;;11.52;48.63
48810;BME280;40070;47.322;18.784;2023-02-21T01:56:17;1002.32;;;11.58;48.69
48810;BME280;40070;47.322;18.784;2023-02-21T01:58:20;1002.41;;;11.49;48.16
48810;BME280;40070;47.322;18.784;2023-02-21T02:00:25;1002.42;;;11.60;47.87
48810;BME280;40070;47.322;18.784;2023-02-21T02:02:32;1002.40;;;11.55;47.99
48810;BME280;40070;47.322;18.784;2023-02-21T02:04:36;1002.31;;;11.54;48.09
48810;BME280;40070;47.322;18.784;2023-02-21T02:06:38;1002.33;;;11.57;47.89
48810;BME280;40070;47.322;18.784;2023-02-21T02:08:41;1002.35;;;11.60;47.62
48810;BME280;40070;47.322;18.784;2023-02-21T02:10:44;1002.38;;;11.71;47.31
48810;BME280;40070;47.322;18.784;2023-02-21T02:15:11;1002.35;;;11.64;47.62
48810;BME280;40070;47.322;18.784;2023-02-21T02:19:51;1002.27;;;11.58;47.84
48810;BME280;40070;47.322;18.784;2023-02-21T02:24:35;1002.26;;;11.67;47.46
48810;BME280;40070;47.322;18.784;2023-02-21T02:27:28;1002.26;;;11.65;47.58
48810;BME280;40070;47.322;18.784;2023-02-21T02:29:14;1002.23;;;11.58;47.81
48810;BME280;40070;47.322;18.784;2023-02-21T02:31:24;1002.24;;;11.50;48.30
48810;BME280;40070;47.322;18.784;2023-02-21T02:35:58;1002.18;;;11.58;47.88
48810;BME280;40070;47.322;18.784;2023-02-21T02:38:37;1002.18;;;11.73;47.39
48810;BME280;40070;47.322;18.784;2023-02-21T02:40:31;1002.20;;;11.49;48.56
48810;BME280;40070;47.322;18.784;2023-02-21T02:42:43;1002.16;;;11.49;48.09
48810;BME280;40070;47.322;18.784;2023-02-21T02:44:49;1002.07;;;11.65;47.71
48810;BME280;40070;47.322;18.784;2023-02-21T02:46:54;1002.02;;;11.67;47.79
48810;BME280;40070;47.322;18.784;2023-02-21T02:49:07;1002.10;;;11.63;48.08
48810;BME280;40070;47.322;18.784;2023-02-21T02:51:11;1002.05;;;11.48;48.44
48810;BME280;40070;47.322;18.784;2023-02-21T02:53:16;1002.14;;;11.76;47.99
48810;BME280;40070;47.322;18.784;2023-02-21T02:55:20;1002.02;;;11.71;47.81
48810;BME280;40070;47.322;18.784;2023-02-21T02:57:24;1002.03;;;11.67;47.66
48810;BME280;40070;47.322;18.784;2023-02-21T02:59:29;1002.00;;;11.66;47.94
48810;BME280;40070;47.322;18.784;2023-02-21T03:04:08;1001.98;;;11.52;48.19
48810;BME280;40070;47.322;18.784;2023-02-21T03:06:18;1001.99;;;11.50;48.44
48810;BME280;40070;47.322;18.784;2023-02-21T03:10:57;1002.03;;;11.50;48.46
48810;BME280;40070;47.322;18.784;2023-02-21T03:15:43;1002.05;;;11.30;49.85
48810;BME280;40070;47.322;18.784;2023-02-21T03:17:36;1002.10;;;11.40;48.92
48810;BME280;40070;47.322;18.784;2023-02-21T03:19:41;1002.14;;;11.39;49.18
48810;BME280;40070;47.322;18.784;2023-02-21T03:21:49;1002.11;;;11.52;48.59
48810;BME280;40070;47.322;18.784;2023-02-21T03:23:53;1002.08;;;11.54;49.14
48810;BME280;40070;47.322;18.784;2023-02-21T03:26:00;1002.12;;;11.65;48.54
48810;BME280;40070;47.322;18.784;2023-02-21T03:28:04;1002.16;;;11.39;49.28
48810;BME280;40070;47.322;18.784;2023-02-21T03:30:07;1002.18;;;11.23;49.46
48810;BME280;40070;47.322;18.784;2023-02-21T03:32:12;1002.24;;;11.40;49.41
48810;BME280;40070;47.322;18.784;2023-02-21T03:34:15;1002.28;;;11.33;49.66
48810;BME280;40070;47.322;18.784;2023-02-21T03:36:17;1002.21;;;11.21;49.56
48810;BME280;40070;47.322;18.784;2023-02-21T03:38:20;1002.24;;;11.20;49.53
48810;BME280;40070;47.322;18.784;2023-02-21T03:40:26;1002.21;;;11.06;49.92
48810;BME280;40070;47.322;18.784;2023-02-21T03:42:29;1002.23;;;11.21;49.53
48810;BME280;40070;47.322;18.784;2023-02-21T03:44:32;1002.20;;;11.21;49.68
48810;BME280;40070;47.322;18.784;2023-02-21T03:46:34;1002.11;;;11.20;49.56
48810;BME280;40070;47.322;18.784;2023-02-21T03:48:36;1002.07;;;11.09;49.80
48810;BME280;40070;47.322;18.784;2023-02-21T03:50:39;1002.11;;;11.05;49.69
48810;BME280;40070;47.322;18.784;2023-02-21T03:52:41;1002.04;;;10.89;50.17
48810;BME280;40070;47.322;18.784;2023-02-21T03:54:43;1002.05;;;10.76;50.16
48810;BME280;40070;47.322;18.784;2023-02-21T03:56:46;1002.03;;;10.83;49.76
48810;BME280;40070;47.322;18.784;2023-02-21T03:58:48;1002.01;;;10.81;49.81
48810;BME280;40070;47.322;18.784;2023-02-21T04:00:50;1002.07;;;10.80;49.94
48810;BME280;40070;47.322;18.784;2023-02-21T04:02:53;1001.99;;;10.96;49.62
48810;BME280;40070;47.322;18.784;2023-02-21T04:04:55;1001.96;;;10.84;50.01
48810;BME280;40070;47.322;18.784;2023-02-21T04:06:57;1001.97;;;10.92;50.07
48810;BME280;40070;47.322;18.784;2023-02-21T04:09:00;1002.01;;;10.69;50.24
48810;BME280;40070;47.322;18.784;2023-02-21T04:11:02;1002.02;;;10.85;50.13
48810;BME280;40070;47.322;18.784;2023-02-21T04:13:05;1002.08;;;10.65;50.80
48810;BME280;40070;47.322;18.784;2023-02-21T04:15:07;1002.05;;;10.31;51.62
48810;BME280;40070;47.322;18.784;2023-02-21T04:17:10;1002.08;;;10.50;51.33
48810;BME280;40070;47.322;18.784;2023-02-21T04:19:12;1002.03;;;10.54;51.08
48810;BME280;40070;47.322;18.784;2023-02-21T04:21:15;1001.97;;;10.40;51.07
48810;BME280;40070;47.322;18.784;2023-02-21T04:23:18;1001.94;;;10.59;50.48
48810;BME280;40070;47.322;18.784;2023-02-21T04:25:21;1002.04;;;10.55;50.58
48810;BME280;40070;47.322;18.784;2023-02-21T04:27:23;1002.00;;;10.48;51.23
48810;BME280;40070;47.322;18.784;2023-02-21T04:29:25;1002.02;;;10.48;51.06
48810;BME280;40070;47.322;18.784;2023-02-21T04:31:28;1002.03;;;10.37;50.88
48810;BME280;40070;47.322;18.784;2023-02-21T04:33:30;1002.03;;;10.27;51.98
48810;BME280;40070;47.322;18.784;2023-02-21T04:35:32;1002.06;;;10.31;51.45
48810;BME280;40070;47.322;18.784;2023-02-21T04:37:35;1002.06;;;10.35;51.46
48810;BME280;40070;47.322;18.784;2023-02-21T04:39:37;1002.06;;;10.39;51.13
48810;BME280;40070;47.322;18.784;2023-02-21T04:41:39;1002.03;;;10.41;51.08
48810;BME280;40070;47.322;18.784;2023-02-21T04:43:42;1002.08;;;10.45;50.87
48810;BME280;40070;47.322;18.784;2023-02-21T04:45:44;1002.10;;;10.35;51.32
48810;BME280;40070;47.322;18.784;2023-02-21T04:47:47;1002.04;;;10.41;51.14
48810;BME280;40070;47.322;18.784;2023-02-21T04:49:49;1002.07;;;10.35;50.92
48810;BME280;40070;47.322;18.784;2023-02-21T04:51:52;1002.08;;;10.54;50.67
48810;BME280;40070;47.322;18.784;2023-02-21T04:53:54;1002.08;;;10.38;50.64
48810;BME280;40070;47.322;18.784;2023-02-21T04:55:57;1002.05;;;10.48;50.59
48810;BME280;40070;47.322;18.784;2023-02-21T04:58:00;1002.12;;;10.32;50.99
48810;BME280;40070;47.322;18.784;2023-02-21T05:00:03;1002.10;;;10.12;51.54
48810;BME280;40070;47.322;18.784;2023-02-21T05:02:05;1002.08;;;10.02;51.85
48810;BME280;40070;47.322;18.784;2023-02-21T05:04:07;1002.07;;;10.02;51.79
48810;BME280;40070;47.322;18.784;2023-02-21T05:06:15;1001.98;;;10.13;51.57
48810;BME280;40070;47.322;18.784;2023-02-21T05:08:18;1001.99;;;10.08;51.72
48810;BME280;40070;47.322;18.784;2023-02-21T05:10:20;1002.00;;;10.03;52.04
48810;BME280;40070;47.322;18.784;2023-02-21T05:12:22;1001.96;;;9.98;52.30
48810;BME280;40070;47.322;18.784;2023-02-21T05:14:25;1001.97;;;9.82;52.60
48810;BME280;40070;47.322;18.784;2023-02-21T05:16:27;1001.97;;;9.98;52.44
48810;BME280;40070;47.322;18.784;2023-02-21T05:18:30;1001.96;;;9.88;52.87
48810;BME280;40070;47.322;18.784;2023-02-21T05:20:32;1002.01;;;10.08;52.20
48810;BME280;40070;47.322;18.784;2023-02-21T05:22:34;1001.95;;;10.08;52.42
48810;BME280;40070;47.322;18.784;2023-02-21T05:24:39;1001.94;;;9.99;52.49
48810;BME280;40070;47.322;18.784;2023-02-21T05:26:42;1001.98;;;9.90;52.79
48810;BME280;40070;47.322;18.784;2023-02-21T05:28:44;1002.05;;;9.90;52.97
48810;BME280;40070;47.322;18.784;2023-02-21T05:30:46;1002.06;;;9.84;53.04
48810;BME280;40070;47.322;18.784;2023-02-21T05:32:49;1001.96;;;9.78;53.31
48810;BME280;40070;47.322;18.784;2023-02-21T05:34:51;1001.93;;;9.88;53.20
48810;BME280;40070;47.322;18.784;2023-02-21T05:36:54;1001.88;;;9.68;53.54
48810;BME280;40070;47.322;18.784;2023-02-21T05:38:56;1001.85;;;9.80;53.36
48810;BME280;40070;47.322;18.784;2023-02-21T05:40:58;1001.90;;;9.70;53.81
48810;BME280;40070;47.322;18.784;2023-02-21T05:43:01;1001.91;;;9.67;53.95
48810;BME280;40070;47.322;18.784;2023-02-21T05:45:03;1001.99;;;9.74;53.68
48810;BME280;40070;47.322;18.784;2023-02-21T05:47:06;1001.97;;;9.64;53.75
48810;BME280;40070;47.322;18.784;2023-02-21T05:49:08;1001.98;;;9.60;53.96
48810;BME280;40070;47.322;18.784;2023-02-21T05:51:10;1002.03;;;9.81;53.85
48810;BME280;40070;47.322;18.784;2023-02-21T05:53:13;1002.07;;;9.72;53.82
48810;BME280;40070;47.322;18.784;2023-02-21T05:55:15;1002.04;;;9.79;53.70
48810;BME280;40070;47.322;18.784;2023-02-21T05:57:18;1002.08;;;9.93;53.31
48810;BME280;40070;47.322;18.784;2023-02-21T05:59:20;1002.07;;;10.07;53.11
48810;BME280;40070;47.322;18.784;2023-02-21T06:01:23;1002.07;;;9.99;53.21
48810;BME280;40070;47.322;18.784;2023-02-21T06:03:25;1002.11;;;10.09;52.88
48810;BME280;40070;47.322;18.784;2023-02-21T06:05:28;1002.14;;;9.98;53.09
48810;BME280;40070;47.322;18.784;2023-02-21T06:07:30;1002.14;;;9.99;53.20
48810;BME280;40070;47.322;18.784;2023-02-21T06:09:33;1002.11;;;10.10;53.11
48810;BME280;40070;47.322;18.784;2023-02-21T06:11:36;1002.12;;;10.05;53.20
48810;BME280;40070;47.322;18.784;2023-02-21T06:13:39;1002.11;;;10.34;52.61
48810;BME280;40070;47.322;18.784;2023-02-21T06:15:42;1002.11;;;10.17;53.05
48810;BME280;40070;47.322;18.784;2023-02-21T06:17:44;1002.11;;;10.01;53.51
48810;BME280;40070;47.322;18.784;2023-02-21T06:19:47;1002.17;;;10.20;52.95
48810;BME280;40070;47.322;18.784;2023-02-21T06:21:49;1002.14;;;10.25;52.72
48810;BME280;40070;47.322;18.784;2023-02-21T06:23:51;1002.13;;;10.23;52.69
48810;BME280;40070;47.322;18.784;2023-02-21T06:25:54;1002.10;;;10.26;52.92
48810;BME280;40070;47.322;18.784;2023-02-21T06:27:56;1002.06;;;10.32;52.72
48810;BME280;40070;47.322;18.784;2023-02-21T06:29:58;1002.08;;;10.50;52.34
48810;BME280;40070;47.322;18.784;2023-02-21T06:32:01;1002.12;;;10.35;52.74
48810;BME280;40070;47.322;18.784;2023-02-21T06:34:03;1002.04;;;10.59;52.10
48810;BME280;40070;47.322;18.784;2023-02-21T06:36:06;1002.00;;;10.64;51.93
48810;BME280;40070;47.322;18.784;2023-02-21T06:38:09;1001.97;;;10.70;51.87
48810;BME280;40070;47.322;18.784;2023-02-21T06:40:11;1001.99;;;10.76;51.79
48810;BME280;40070;47.322;18.784;2023-02-21T06:42:14;1001.92;;;10.87;51.36
48810;BME280;40070;47.322;18.784;2023-02-21T06:44:17;1001.96;;;10.92;50.96
48810;BME280;40070;47.322;18.784;2023-02-21T06:46:20;1002.00;;;11.13;50.21
48810;BME280;40070;47.322;18.784;2023-02-21T06:48:22;1002.04;;;11.20;50.40
48810;BME280;40070;47.322;18.784;2023-02-21T06:50:25;1002.07;;;11.25;50.36
48810;BME280;40070;47.322;18.784;2023-02-21T06:52:28;1002.02;;;11.34;50.09
48810;BME280;40070;47.322;18.784;2023-02-21T06:54:31;1002.04;;;11.35;49.81
48810;BME280;40070;47.322;18.784;2023-02-21T06:56:33;1002.12;;;11.52;49.54
48810;BME280;40070;47.322;18.784;2023-02-21T06:58:36;1002.14;;;11.58;49.55
48810;BME280;40070;47.322;18.784;2023-02-21T07:00:38;1002.06;;;11.42;49.77
48810;BME280;40070;47.322;18.784;2023-02-21T07:02:40;1002.14;;;11.68;49.19
48810;BME280;40070;47.322;18.784;2023-02-21T07:04:43;1002.20;;;11.69;48.91
48810;BME280;40070;47.322;18.784;2023-02-21T07:06:46;1002.27;;;11.85;49.04
48810;BME280;40070;47.322;18.784;2023-02-21T07:08:48;1002.30;;;11.85;49.22
48810;BME280;40070;47.322;18.784;2023-02-21T07:10:50;1002.28;;;11.90;49.13
48810;BME280;40070;47.322;18.784;2023-02-21T07:12:53;1002.26;;;11.90;48.71
48810;BME280;40070;47.322;18.784;2023-02-21T07:14:56;1002.30;;;11.98;48.92
48810;BME280;40070;47.322;18.784;2023-02-21T07:16:58;1002.23;;;11.96;49.00
48810;BME280;40070;47.322;18.784;2023-02-21T07:19:00;1002.25;;;12.04;48.58
48810;BME280;40070;47.322;18.784;2023-02-21T07:21:03;1002.23;;;12.05;48.89
48810;BME280;40070;47.322;18.784;2023-02-21T07:23:05;1002.11;;;12.07;48.96
48810;BME280;40070;47.322;18.784;2023-02-21T07:25:07;1002.06;;;12.17;49.12
48810;BME280;40070;47.322;18.784;2023-02-21T07:27:10;1002.09;;;12.21;48.66
48810;BME280;40070;47.322;18.784;2023-02-21T07:29:12;1002.13;;;12.26;48.40
48810;BME280;40070;47.322;18.784;2023-02-21T07:31:14;1002.07;;;12.22;48.67
48810;BME280;40070;47.322;18.784;2023-02-21T07:33:17;1002.06;;;12.21;48.65
48810;BME280;40070;47.322;18.784;2023-02-21T07:35:19;1002.16;;;12.25;48.64
48810;BME280;40070;47.322;18.784;2023-02-21T07:37:21;1002.20;;;12.25;48.64
48810;BME280;40070;47.322;18.784;2023-02-21T07:39:24;1002.24;;;12.32;48.46
48810;BME280;40070;47.322;18.784;2023-02-21T07:41:26;1002.18;;;12.32;48.15
48810;BME280;40070;47.322;18.784;2023-02-21T07:43:29;1002.28;;;12.31;48.44
48810;BME280;40070;47.322;18.784;2023-02-21T07:45:32;1002.24;;;12.37;48.28
48810;BME280;40070;47.322;18.784;2023-02-21T07:47:34;1002.23;;;12.37;48.29
48810;BME280;40070;47.322;18.784;2023-02-21T07:49:37;1002.16;;;12.42;48.12
48810;BME280;40070;47.322;18.784;2023-02-21T07:51:39;1002.19;;;12.48;48.36
48810;BME280;40070;47.322;18.784;2023-02-21T07:53:42;1002.25;;;12.51;48.26
48810;BME280;40070;47.322;18.784;2023-02-21T07:55:44;1002.17;;;12.63;47.96
48810;BME280;40070;47.322;18.784;2023-02-21T07:57:47;1002.18;;;12.54;48.11
48810;BME280;40070;47.322;18.784;2023-02-21T07:59:49;1002.20;;;12.63;48.27
48810;BME280;40070;47.322;18.784;2023-02-21T08:01:51;1002.17;;;12.51;48.25
48810;BME280;40070;47.322;18.784;2023-02-21T08:03:57;1002.22;;;12.51;48.16
48810;BME280;40070;47.322;18.784;2023-02-21T08:05:59;1002.26;;;12.57;47.91
48810;BME280;40070;47.322;18.784;2023-02-21T08:08:01;1002.22;;;12.59;48.27
48810;BME280;40070;47.322;18.784;2023-02-21T08:10:04;1002.19;;;12.79;48.18
48810;BME280;40070;47.322;18.784;2023-02-21T08:12:07;1002.21;;;12.89;47.83
48810;BME280;40070;47.322;18.784;2023-02-21T08:14:09;1002.23;;;12.85;47.63
48810;BME280;40070;47.322;18.784;2023-02-21T08:16:11;1002.19;;;12.81;47.87
48810;BME280;40070;47.322;18.784;2023-02-21T08:18:18;1002.20;;;13.03;48.00
48810;BME280;40070;47.322;18.784;2023-02-21T08:20:20;1002.41;;;13.24;47.75
48810;BME280;40070;47.322;18.784;2023-02-21T08:22:23;1002.29;;;13.01;47.59
48810;BME280;40070;47.322;18.784;2023-02-21T08:24:25;1002.25;;;13.13;47.29
48810;BME280;40070;47.322;18.784;2023-02-21T08:26:27;1002.33;;;13.08;47.52
48810;BME280;40070;47.322;18.784;2023-02-21T08:28:30;1002.24;;;13.25;46.80
48810;BME280;40070;47.322;18.784;2023-02-21T08:30:32;1002.39;;;13.27;46.65
48810;BME280;40070;47.322;18.784;2023-02-21T08:32:34;1002.40;;;13.30;46.85
48810;BME280;40070;47.322;18.784;2023-02-21T08:34:37;1002.43;;;13.21;46.96
48810;BME280;40070;47.322;18.784;2023-02-21T08:36:41;1002.41;;;13.34;47.62
48810;BME280;40070;47.322;18.784;2023-02-21T08:38:43;1002.36;;;13.35;47.09
48810;BME280;40070;47.322;18.784;2023-02-21T08:40:46;1002.28;;;13.16;47.19
48810;BME280;40070;47.322;18.784;2023-02-21T08:42:49;1002.31;;;13.21;47.35
48810;BME280;40070;47.322;18.784;2023-02-21T08:44:51;1002.32;;;13.41;46.71
48810;BME280;40070;47.322;18.784;2023-02-21T08:46:54;1002.32;;;13.38;47.17
48810;BME280;40070;47.322;18.784;2023-02-21T08:48:56;1002.32;;;13.48;46.66
48810;BME280;40070;47.322;18.784;2023-02-21T08:50:58;1002.33;;;13.37;46.62
48810;BME280;40070;47.322;18.784;2023-02-21T08:53:01;1002.32;;;13.51;46.51
48810;BME280;40070;47.322;18.784;2023-02-21T08:55:03;1002.32;;;13.51;46.59
48810;BME280;40070;47.322;18.784;2023-02-21T08:57:06;1002.40;;;13.58;46.94
48810;BME280;40070;47.322;18.784;2023-02-21T08:59:08;1002.44;;;13.42;46.88
48810;BME280;40070;47.322;18.784;2023-02-21T09:01:11;1002.43;;;13.60;46.97
48810;BME280;40070;47.322;18.784;2023-02-21T09:03:13;1002.38;;;13.49;46.78
48810;BME280;40070;47.322;18.784;2023-02-21T09:05:34;1002.35;;;13.62;46.69
48810;BME280;40070;47.322;18.784;2023-02-21T09:07:33;1002.37;;;13.49;46.82
48810;BME280;40070;47.322;18.784;2023-02-21T09:09:38;1002.39;;;13.62;46.43
48810;BME280;40070;47.322;18.784;2023-02-21T09:11:40;1002.41;;;13.69;46.27
48810;BME280;40070;47.322;18.784;2023-02-21T09:13:43;1002.46;;;13.83;46.62
48810;BME280;40070;47.322;18.784;2023-02-21T09:15:45;1002.43;;;13.88;46.38
48810;BME280;40070;47.322;18.784;2023-02-21T09:17:47;1002.45;;;13.92;46.56
48810;BME280;40070;47.322;18.784;2023-02-21T09:19:50;1002.44;;;13.95;46.50
48810;BME280;40070;47.322;18.784;2023-02-21T09:21:52;1002.37;;;13.93;45.60
48810;BME280;40070;47.322;18.784;2023-02-21T09:23:55;1002.36;;;13.87;46.17
48810;BME280;40070;47.322;18.784;2023-02-21T09:25:57;1002.38;;;14.19;46.49
48810;BME280;40070;47.322;18.784;2023-02-21T09:28:00;1002.47;;;14.07;46.10
48810;BME280;40070;47.322;18.784;2023-02-21T09:30:07;1002.44;;;14.19;46.43
48810;BME280;40070;47.322;18.784;2023-02-21T09:32:10;1002.40;;;14.40;46.26
48810;BME280;40070;47.322;18.784;2023-02-21T09:34:12;1002.35;;;14.49;45.43
48810;BME280;40070;47.322;18.784;2023-02-21T09:36:14;1002.35;;;14.58;45.91
48810;BME280;40070;47.322;18.784;2023-02-21T09:38:17;1002.30;;;14.79;45.50
48810;BME280;40070;47.322;18.784;2023-02-21T09:42:36;1002.22;;;14.84;45.42
48810;BME280;40070;47.322;18.784;2023-02-21T09:44:39;1002.23;;;14.74;45.71
48810;BME280;40070;47.322;18.784;2023-02-21T09:46:43;1002.28;;;14.84;45.55
48810;BME280;40070;47.322;18.784;2023-02-21T09:48:46;1002.24;;;14.88;45.31
48810;BME280;40070;47.322;18.784;2023-02-21T09:50:49;1002.16;;;14.73;45.56
48810;BME280;40070;47.322;18.784;2023-02-21T09:52:54;1002.09;;;14.83;45.75
48810;BME280;40070;47.322;18.784;2023-02-21T09:54:57;1002.12;;;15.05;45.67
48810;BME280;40070;47.322;18.784;2023-02-21T09:57:01;1002.16;;;15.24;44.70
48810;BME280;40070;47.322;18.784;2023-02-21T09:59:13;1002.12;;;15.31;44.84
48810;BME280;40070;47.322;18.784;2023-02-21T10:01:21;1002.13;;;15.34;44.59
48810;BME280;40070;47.322;18.784;2023-02-21T10:05:55;1002.10;;;15.44;44.60
48810;BME280;40070;47.322;18.784;2023-02-21T10:08:14;1002.11;;;15.53;44.22
48810;BME280;40070;47.322;18.784;2023-02-21T10:10:21;1002.09;;;15.44;45.11
48810;BME280;40070;47.322;18.784;2023-02-21T10:12:33;1002.13;;;15.51;45.53
48810;BME280;40070;47.322;18.784;2023-02-21T10:14:50;1002.15;;;15.76;45.00
48810;BME280;40070;47.322;18.784;2023-02-21T10:17:17;1002.04;;;16.08;43.87
48810;BME280;40070;47.322;18.784;2023-02-21T10:21:39;1002.15;;;16.13;43.59
48810;BME280;40070;47.322;18.784;2023-02-21T10:23:43;1002.21;;;16.10;43.65
48810;BME280;40070;47.322;18.784;2023-02-21T10:25:46;1002.16;;;16.20;43.87
48810;BME280;40070;47.322;18.784;2023-02-21T10:27:48;1002.10;;;15.98;44.32
48810;BME280;40070;47.322;18.784;2023-02-21T10:30:02;1002.14;;;16.00;44.59
48810;BME280;40070;47.322;18.784;2023-02-21T10:32:05;1002.16;;;16.13;43.99
48810;BME280;40070;47.322;18.784;2023-02-21T10:34:08;1002.08;;;16.00;44.38
48810;BME280;40070;47.322;18.784;2023-02-21T10:36:17;1002.22;;;16.09;44.82
48810;BME280;40070;47.322;18.784;2023-02-21T10:38:22;1002.24;;;15.90;44.44
48810;BME280;40070;47.322;18.784;2023-02-21T10:40:43;1002.26;;;16.40;44.07
48810;BME280;40070;47.322;18.784;2023-02-21T10:42:47;1002.21;;;16.33;44.08
48810;BME280;40070;47.322;18.784;2023-02-21T10:44:51;1002.22;;;16.35;44.24
48810;BME280;40070;47.322;18.784;2023-02-21T10:47:07;1002.35;;;16.40;44.00
48810;BME280;40070;47.322;18.784;2023-02-21T10:49:25;1002.27;;;16.41;43.81
48810;BME280;40070;47.322;18.784;2023-02-21T10:51:31;1002.27;;;16.48;43.96
48810;BME280;40070;47.322;18.784;2023-02-21T10:53:37;1002.19;;;16.93;43.22
48810;BME280;40070;47.322;18.784;2023-02-21T10:55:39;1002.18;;;16.82;42.90
48810;BME280;40070;47.322;18.784;2023-02-21T10:57:42;1002.19;;;16.99;43.40
48810;BME280;40070;47.322;18.784;2023-02-21T10:59:45;1002.15;;;17.46;42.25
48810;BME280;40070;47.322;18.784;2023-02-21T11:01:49;1002.09;;;17.30;42.77
48810;BME280;40070;47.322;18.784;2023-02-21T11:03:52;1002.12;;;17.06;42.53
48810;BME280;40070;47.322;18.784;2023-02-21T11:05:56;1002.17;;;16.65;43.39
48810;BME280;40070;47.322;18.784;2023-02-21T11:08:05;1002.20;;;16.93;43.29
48810;BME280;40070;47.322;18.784;2023-02-21T11:10:42;1002.16;;;17.23;42.95
48810;BME280;40070;47.322;18.784;2023-02-21T11:12:29;1002.19;;;17.06;43.01
48810;BME280;40070;47.322;18.784;2023-02-21T11:14:32;1002.13;;;16.62;43.16
48810;BME280;40070;47.322;18.784;2023-02-21T11:16:35;1002.19;;;16.87;43.10
48810;BME280;40070;47.322;18.784;2023-02-21T11:18:37;1002.18;;;16.92;43.06
48810;BME280;40070;47.322;18.784;2023-02-21T11:20:40;1002.28;;;16.95;43.00